F69 weather

Air Park Dallas Airport
Dallas, Texas, United States

Public forecast

Using degrees Fahrenheit for public forecast. Weather courtesy of forecast.io.

METAR (pilot weather report)

Closest report is Addison Airport, 3.3 nm (6.1 km) S. Retrieved 2017/12/15 16:00 UTC (22 minutes ago):

KADS 151600Z 32010KT 11SM SKC 07/00 A3034

TAF (pilot weather forecast)

Closest forecast is Dallas Love Field, 10.6 nm (19.7 km) S. Retrieved 2017/12/15 12:33 UTC (4 hours ago):

TAF KDAL 151130Z 1512/1612 33009KT P6SM SCT250 FM160200 21006KT P6SM BKN250